sensor_id;sensor_type;location;lat;lon;timestamp;P1;durP1;ratioP1;P2;durP2;ratioP2
27985;SDS011;15453;53.692;10.168;2023-06-22T00:00:49;3.55;;;2.28;;
27985;SDS011;15453;53.692;10.168;2023-06-22T00:03:17;3.10;;;2.40;;
27985;SDS011;15453;53.692;10.168;2023-06-22T00:05:43;3.58;;;2.33;;
27985;SDS011;15453;53.692;10.168;2023-06-22T00:08:08;4.25;;;2.65;;
27985;SDS011;15453;53.692;10.168;2023-06-22T00:10:34;2.67;;;2.13;;
27985;SDS011;15453;53.692;10.168;2023-06-22T00:12:59;6.15;;;2.70;;
27985;SDS011;15453;53.692;10.168;2023-06-22T00:15:24;3.38;;;2.20;;
27985;SDS011;15453;53.692;10.168;2023-06-22T00:17:50;4.47;;;2.42;;
27985;SDS011;15453;53.692;10.168;2023-06-22T00:20:16;4.43;;;2.25;;
27985;SDS011;15453;53.692;10.168;2023-06-22T00:22:43;3.13;;;2.25;;
27985;SDS011;15453;53.692;10.168;2023-06-22T00:25:09;3.38;;;2.05;;
27985;SDS011;15453;53.692;10.168;2023-06-22T00:27:34;3.53;;;2.75;;
27985;SDS011;15453;53.692;10.168;2023-06-22T00:30:00;3.15;;;2.40;;
27985;SDS011;15453;53.692;10.168;2023-06-22T00:32:25;2.38;;;2.15;;
27985;SDS011;15453;53.692;10.168;2023-06-22T00:34:50;3.63;;;2.63;;
27985;SDS011;15453;53.692;10.168;2023-06-22T00:37:16;3.70;;;2.25;;
27985;SDS011;15453;53.692;10.168;2023-06-22T00:39:42;2.67;;;2.22;;
27985;SDS011;15453;53.692;10.168;2023-06-22T00:42:08;3.65;;;2.30;;
27985;SDS011;15453;53.692;10.168;2023-06-22T00:44:33;3.03;;;2.28;;
27985;SDS011;15453;53.692;10.168;2023-06-22T00:46:58;3.65;;;2.35;;
27985;SDS011;15453;53.692;10.168;2023-06-22T00:49:25;5.75;;;2.38;;
27985;SDS011;15453;53.692;10.168;2023-06-22T00:51:50;2.90;;;2.50;;
27985;SDS011;15453;53.692;10.168;2023-06-22T00:54:16;3.00;;;2.38;;
27985;SDS011;15453;53.692;10.168;2023-06-22T00:56:46;2.50;;;2.15;;
27985;SDS011;15453;53.692;10.168;2023-06-22T00:59:11;3.17;;;2.38;;
27985;SDS011;15453;53.692;10.168;2023-06-22T01:01:37;4.03;;;2.88;;
27985;SDS011;15453;53.692;10.168;2023-06-22T01:04:06;3.03;;;2.38;;
27985;SDS011;15453;53.692;10.168;2023-06-22T01:06:33;3.47;;;2.42;;
27985;SDS011;15453;53.692;10.168;2023-06-22T01:09:08;3.60;;;2.63;;
27985;SDS011;15453;53.692;10.168;2023-06-22T01:14:55;3.83;;;2.70;;
27985;SDS011;15453;53.692;10.168;2023-06-22T01:17:26;2.88;;;2.13;;
27985;SDS011;15453;53.692;10.168;2023-06-22T01:19:54;4.03;;;2.58;;
27985;SDS011;15453;53.692;10.168;2023-06-22T01:22:21;5.03;;;2.80;;
27985;SDS011;15453;53.692;10.168;2023-06-22T01:24:55;4.55;;;2.60;;
27985;SDS011;15453;53.692;10.168;2023-06-22T01:30:06;5.05;;;2.55;;
27985;SDS011;15453;53.692;10.168;2023-06-22T01:32:35;3.10;;;2.45;;
27985;SDS011;15453;53.692;10.168;2023-06-22T01:35:03;3.47;;;2.20;;
27985;SDS011;15453;53.692;10.168;2023-06-22T01:37:31;6.88;;;2.53;;
27985;SDS011;15453;53.692;10.168;2023-06-22T01:39:58;4.20;;;2.38;;
27985;SDS011;15453;53.692;10.168;2023-06-22T01:42:24;2.67;;;2.38;;
27985;SDS011;15453;53.692;10.168;2023-06-22T01:44:52;3.30;;;2.38;;
27985;SDS011;15453;53.692;10.168;2023-06-22T01:47:18;3.00;;;2.00;;
27985;SDS011;15453;53.692;10.168;2023-06-22T01:49:45;4.13;;;2.60;;
27985;SDS011;15453;53.692;10.168;2023-06-22T01:52:11;3.13;;;2.50;;
27985;SDS011;15453;53.692;10.168;2023-06-22T01:54:37;2.35;;;2.15;;
27985;SDS011;15453;53.692;10.168;2023-06-22T01:57:04;4.45;;;2.30;;
27985;SDS011;15453;53.692;10.168;2023-06-22T01:59:34;3.03;;;2.15;;
27985;SDS011;15453;53.692;10.168;2023-06-22T02:02:04;3.08;;;2.13;;
27985;SDS011;15453;53.692;10.168;2023-06-22T02:04:40;2.60;;;1.88;;
27985;SDS011;15453;53.692;10.168;2023-06-22T02:07:21;5.45;;;2.28;;
27985;SDS011;15453;53.692;10.168;2023-06-22T02:09:48;3.13;;;2.42;;
27985;SDS011;15453;53.692;10.168;2023-06-22T02:12:17;3.38;;;2.20;;
27985;SDS011;15453;53.692;10.168;2023-06-22T02:14:46;3.38;;;2.50;;
27985;SDS011;15453;53.692;10.168;2023-06-22T02:17:11;2.83;;;2.15;;
27985;SDS011;15453;53.692;10.168;2023-06-22T02:19:38;2.65;;;2.40;;
27985;SDS011;15453;53.692;10.168;2023-06-22T02:22:05;4.70;;;2.33;;
27985;SDS011;15453;53.692;10.168;2023-06-22T02:24:31;5.93;;;2.90;;
27985;SDS011;15453;53.692;10.168;2023-06-22T02:27:00;3.97;;;2.55;;
27985;SDS011;15453;53.692;10.168;2023-06-22T02:31:52;3.15;;;2.20;;
27985;SDS011;15453;53.692;10.168;2023-06-22T02:34:18;3.90;;;2.75;;
27985;SDS011;15453;53.692;10.168;2023-06-22T02:36:47;3.85;;;2.42;;
27985;SDS011;15453;53.692;10.168;2023-06-22T02:39:22;3.88;;;2.38;;
27985;SDS011;15453;53.692;10.168;2023-06-22T02:41:49;4.05;;;2.58;;
27985;SDS011;15453;53.692;10.168;2023-06-22T02:44:16;2.95;;;2.38;;
27985;SDS011;15453;53.692;10.168;2023-06-22T02:46:41;5.18;;;2.72;;
27985;SDS011;15453;53.692;10.168;2023-06-22T02:49:07;3.85;;;2.78;;
27985;SDS011;15453;53.692;10.168;2023-06-22T02:51:33;3.22;;;2.47;;
27985;SDS011;15453;53.692;10.168;2023-06-22T02:53:59;3.85;;;2.53;;
27985;SDS011;15453;53.692;10.168;2023-06-22T02:56:24;3.30;;;2.47;;
27985;SDS011;15453;53.692;10.168;2023-06-22T02:58:49;5.10;;;2.40;;
27985;SDS011;15453;53.692;10.168;2023-06-22T03:01:15;2.95;;;2.30;;
27985;SDS011;15453;53.692;10.168;2023-06-22T03:03:40;2.90;;;2.22;;
27985;SDS011;15453;53.692;10.168;2023-06-22T03:06:06;4.35;;;2.70;;
27985;SDS011;15453;53.692;10.168;2023-06-22T03:08:31;3.05;;;2.33;;
27985;SDS011;15453;53.692;10.168;2023-06-22T03:10:56;3.60;;;2.22;;
27985;SDS011;15453;53.692;10.168;2023-06-22T03:13:21;2.97;;;2.25;;
27985;SDS011;15453;53.692;10.168;2023-06-22T03:15:47;4.15;;;2.70;;
27985;SDS011;15453;53.692;10.168;2023-06-22T03:18:12;5.22;;;3.40;;
27985;SDS011;15453;53.692;10.168;2023-06-22T03:20:37;4.78;;;2.90;;
27985;SDS011;15453;53.692;10.168;2023-06-22T03:23:03;2.95;;;2.60;;
27985;SDS011;15453;53.692;10.168;2023-06-22T03:25:28;3.83;;;2.65;;
27985;SDS011;15453;53.692;10.168;2023-06-22T03:27:53;3.30;;;2.90;;
27985;SDS011;15453;53.692;10.168;2023-06-22T03:30:18;3.42;;;2.60;;
27985;SDS011;15453;53.692;10.168;2023-06-22T03:32:44;4.22;;;2.90;;
27985;SDS011;15453;53.692;10.168;2023-06-22T03:35:11;4.40;;;2.65;;
27985;SDS011;15453;53.692;10.168;2023-06-22T03:37:38;3.22;;;2.53;;
27985;SDS011;15453;53.692;10.168;2023-06-22T03:40:04;3.47;;;2.65;;
27985;SDS011;15453;53.692;10.168;2023-06-22T03:42:30;4.03;;;2.42;;
27985;SDS011;15453;53.692;10.168;2023-06-22T03:44:55;5.85;;;2.88;;
27985;SDS011;15453;53.692;10.168;2023-06-22T03:47:21;4.15;;;3.13;;
27985;SDS011;15453;53.692;10.168;2023-06-22T03:49:47;6.28;;;3.17;;
27985;SDS011;15453;53.692;10.168;2023-06-22T03:52:12;3.50;;;3.13;;
27985;SDS011;15453;53.692;10.168;2023-06-22T03:54:37;3.22;;;2.75;;
27985;SDS011;15453;53.692;10.168;2023-06-22T03:57:03;6.03;;;3.33;;
27985;SDS011;15453;53.692;10.168;2023-06-22T03:59:28;4.57;;;3.00;;
27985;SDS011;15453;53.692;10.168;2023-06-22T04:01:53;4.75;;;3.22;;
27985;SDS011;15453;53.692;10.168;2023-06-22T04:04:19;5.18;;;3.30;;
27985;SDS011;15453;53.692;10.168;2023-06-22T04:06:45;5.45;;;3.42;;
27985;SDS011;15453;53.692;10.168;2023-06-22T04:09:10;6.25;;;3.33;;
27985;SDS011;15453;53.692;10.168;2023-06-22T04:11:35;4.63;;;3.40;;
27985;SDS011;15453;53.692;10.168;2023-06-22T04:14:00;3.88;;;3.22;;
27985;SDS011;15453;53.692;10.168;2023-06-22T04:16:26;5.30;;;3.50;;
27985;SDS011;15453;53.692;10.168;2023-06-22T04:18:51;4.47;;;3.67;;
27985;SDS011;15453;53.692;10.168;2023-06-22T04:21:17;7.68;;;4.00;;
27985;SDS011;15453;53.692;10.168;2023-06-22T04:23:44;5.53;;;3.88;;
27985;SDS011;15453;53.692;10.168;2023-06-22T04:26:10;5.05;;;4.07;;
27985;SDS011;15453;53.692;10.168;2023-06-22T04:28:36;5.20;;;3.85;;
27985;SDS011;15453;53.692;10.168;2023-06-22T04:31:07;6.57;;;3.60;;
27985;SDS011;15453;53.692;10.168;2023-06-22T04:33:32;7.75;;;4.13;;
27985;SDS011;15453;53.692;10.168;2023-06-22T04:35:58;4.93;;;3.97;;
27985;SDS011;15453;53.692;10.168;2023-06-22T04:38:26;5.13;;;4.03;;
27985;SDS011;15453;53.692;10.168;2023-06-22T04:40:52;6.70;;;4.32;;
27985;SDS011;15453;53.692;10.168;2023-06-22T04:43:18;7.45;;;3.95;;
27985;SDS011;15453;53.692;10.168;2023-06-22T04:45:43;4.97;;;4.45;;
27985;SDS011;15453;53.692;10.168;2023-06-22T04:48:09;4.90;;;4.13;;
27985;SDS011;15453;53.692;10.168;2023-06-22T04:50:35;6.07;;;4.35;;
27985;SDS011;15453;53.692;10.168;2023-06-22T04:53:03;5.50;;;4.10;;
27985;SDS011;15453;53.692;10.168;2023-06-22T04:55:30;6.30;;;4.05;;
27985;SDS011;15453;53.692;10.168;2023-06-22T04:57:56;7.05;;;4.18;;
27985;SDS011;15453;53.692;10.168;2023-06-22T05:00:21;5.97;;;3.55;;
27985;SDS011;15453;53.692;10.168;2023-06-22T05:02:48;4.50;;;3.35;;
27985;SDS011;15453;53.692;10.168;2023-06-22T05:05:14;5.78;;;3.85;;
27985;SDS011;15453;53.692;10.168;2023-06-22T05:07:42;5.45;;;4.18;;
27985;SDS011;15453;53.692;10.168;2023-06-22T05:10:11;8.83;;;4.90;;
27985;SDS011;15453;53.692;10.168;2023-06-22T05:12:37;7.53;;;4.85;;
27985;SDS011;15453;53.692;10.168;2023-06-22T05:15:03;6.28;;;4.72;;
27985;SDS011;15453;53.692;10.168;2023-06-22T05:17:29;7.63;;;5.10;;
27985;SDS011;15453;53.692;10.168;2023-06-22T05:19:54;6.50;;;4.47;;
27985;SDS011;15453;53.692;10.168;2023-06-22T05:22:20;14.35;;;4.50;;
27985;SDS011;15453;53.692;10.168;2023-06-22T05:24:45;8.82;;;4.95;;
27985;SDS011;15453;53.692;10.168;2023-06-22T05:27:10;6.25;;;4.88;;
27985;SDS011;15453;53.692;10.168;2023-06-22T05:29:36;7.75;;;4.68;;
27985;SDS011;15453;53.692;10.168;2023-06-22T05:32:02;6.22;;;4.95;;
27985;SDS011;15453;53.692;10.168;2023-06-22T05:34:28;7.65;;;5.20;;
27985;SDS011;15453;53.692;10.168;2023-06-22T05:36:53;10.40;;;5.22;;
27985;SDS011;15453;53.692;10.168;2023-06-22T05:39:18;6.68;;;4.50;;
27985;SDS011;15453;53.692;10.168;2023-06-22T05:41:44;8.27;;;4.55;;
27985;SDS011;15453;53.692;10.168;2023-06-22T05:44:10;9.00;;;5.32;;
27985;SDS011;15453;53.692;10.168;2023-06-22T05:46:35;8.95;;;5.32;;
27985;SDS011;15453;53.692;10.168;2023-06-22T05:49:01;6.50;;;4.50;;
27985;SDS011;15453;53.692;10.168;2023-06-22T05:51:26;7.03;;;4.88;;
27985;SDS011;15453;53.692;10.168;2023-06-22T05:53:51;8.38;;;4.75;;
27985;SDS011;15453;53.692;10.168;2023-06-22T05:56:17;5.38;;;3.97;;
27985;SDS011;15453;53.692;10.168;2023-06-22T05:58:42;5.38;;;4.38;;
27985;SDS011;15453;53.692;10.168;2023-06-22T06:01:07;6.40;;;3.88;;
27985;SDS011;15453;53.692;10.168;2023-06-22T06:03:33;5.95;;;4.00;;
27985;SDS011;15453;53.692;10.168;2023-06-22T06:05:58;7.10;;;4.00;;
27985;SDS011;15453;53.692;10.168;2023-06-22T06:08:23;9.63;;;4.28;;
27985;SDS011;15453;53.692;10.168;2023-06-22T06:10:48;6.55;;;4.28;;
27985;SDS011;15453;53.692;10.168;2023-06-22T06:13:14;4.95;;;3.85;;
27985;SDS011;15453;53.692;10.168;2023-06-22T06:15:39;5.30;;;4.03;;
27985;SDS011;15453;53.692;10.168;2023-06-22T06:18:05;7.35;;;4.30;;
27985;SDS011;15453;53.692;10.168;2023-06-22T06:20:31;5.20;;;3.58;;
27985;SDS011;15453;53.692;10.168;2023-06-22T06:22:57;5.63;;;3.28;;
27985;SDS011;15453;53.692;10.168;2023-06-22T06:25:22;4.93;;;3.50;;
27985;SDS011;15453;53.692;10.168;2023-06-22T06:27:48;6.00;;;3.25;;
27985;SDS011;15453;53.692;10.168;2023-06-22T06:30:15;7.53;;;2.90;;
27985;SDS011;15453;53.692;10.168;2023-06-22T06:32:42;6.07;;;2.67;;
27985;SDS011;15453;53.692;10.168;2023-06-22T06:35:08;4.13;;;2.63;;
27985;SDS011;15453;53.692;10.168;2023-06-22T06:37:37;3.40;;;2.35;;
27985;SDS011;15453;53.692;10.168;2023-06-22T06:40:03;2.83;;;2.45;;
27985;SDS011;15453;53.692;10.168;2023-06-22T06:42:32;3.73;;;2.63;;
27985;SDS011;15453;53.692;10.168;2023-06-22T06:44:57;2.58;;;2.15;;
27985;SDS011;15453;53.692;10.168;2023-06-22T06:47:22;4.50;;;2.67;;
27985;SDS011;15453;53.692;10.168;2023-06-22T06:49:48;3.33;;;2.40;;
27985;SDS011;15453;53.692;10.168;2023-06-22T06:52:13;5.32;;;2.47;;
27985;SDS011;15453;53.692;10.168;2023-06-22T06:54:38;3.80;;;2.10;;
27985;SDS011;15453;53.692;10.168;2023-06-22T06:57:04;4.90;;;2.37;;
27985;SDS011;15453;53.692;10.168;2023-06-22T06:59:29;3.40;;;2.28;;
27985;SDS011;15453;53.692;10.168;2023-06-22T07:01:55;5.68;;;2.45;;
27985;SDS011;15453;53.692;10.168;2023-06-22T07:04:21;4.68;;;2.70;;
27985;SDS011;15453;53.692;10.168;2023-06-22T07:06:46;5.03;;;2.47;;
27985;SDS011;15453;53.692;10.168;2023-06-22T07:09:11;4.65;;;2.58;;
27985;SDS011;15453;53.692;10.168;2023-06-22T07:11:36;6.30;;;2.47;;
27985;SDS011;15453;53.692;10.168;2023-06-22T07:14:01;3.30;;;2.53;;
27985;SDS011;15453;53.692;10.168;2023-06-22T07:16:27;5.60;;;3.42;;
27985;SDS011;15453;53.692;10.168;2023-06-22T07:18:53;4.10;;;2.50;;
27985;SDS011;15453;53.692;10.168;2023-06-22T07:21:18;4.78;;;2.90;;
27985;SDS011;15453;53.692;10.168;2023-06-22T07:23:44;3.70;;;2.78;;
27985;SDS011;15453;53.692;10.168;2023-06-22T07:26:09;3.10;;;2.50;;
27985;SDS011;15453;53.692;10.168;2023-06-22T07:28:34;7.25;;;2.78;;
27985;SDS011;15453;53.692;10.168;2023-06-22T07:31:02;5.80;;;2.78;;
27985;SDS011;15453;53.692;10.168;2023-06-22T07:33:29;5.85;;;2.85;;
27985;SDS011;15453;53.692;10.168;2023-06-22T07:35:54;8.63;;;2.63;;
27985;SDS011;15453;53.692;10.168;2023-06-22T07:38:20;4.45;;;2.90;;
27985;SDS011;15453;53.692;10.168;2023-06-22T07:40:45;5.13;;;2.80;;
27985;SDS011;15453;53.692;10.168;2023-06-22T07:43:10;5.25;;;3.25;;
27985;SDS011;15453;53.692;10.168;2023-06-22T07:45:37;5.07;;;2.53;;
27985;SDS011;15453;53.692;10.168;2023-06-22T07:48:03;4.05;;;3.10;;
27985;SDS011;15453;53.692;10.168;2023-06-22T07:50:28;8.95;;;2.80;;
27985;SDS011;15453;53.692;10.168;2023-06-22T07:52:54;4.82;;;2.60;;
27985;SDS011;15453;53.692;10.168;2023-06-22T07:55:19;4.27;;;2.63;;
27985;SDS011;15453;53.692;10.168;2023-06-22T07:57:46;6.65;;;2.90;;
27985;SDS011;15453;53.692;10.168;2023-06-22T08:00:12;7.28;;;2.92;;
27985;SDS011;15453;53.692;10.168;2023-06-22T08:02:41;3.65;;;2.55;;
27985;SDS011;15453;53.692;10.168;2023-06-22T08:05:07;4.80;;;2.92;;
27985;SDS011;15453;53.692;10.168;2023-06-22T08:07:34;5.07;;;3.05;;
27985;SDS011;15453;53.692;10.168;2023-06-22T08:10:02;4.45;;;3.03;;
27985;SDS011;15453;53.692;10.168;2023-06-22T08:12:29;5.60;;;2.83;;
27985;SDS011;15453;53.692;10.168;2023-06-22T08:14:55;5.72;;;3.45;;
27985;SDS011;15453;53.692;10.168;2023-06-22T08:17:21;6.40;;;3.65;;
27985;SDS011;15453;53.692;10.168;2023-06-22T08:19:47;6.50;;;3.58;;
27985;SDS011;15453;53.692;10.168;2023-06-22T08:22:12;4.37;;;3.10;;
27985;SDS011;15453;53.692;10.168;2023-06-22T08:24:37;3.17;;;2.47;;
27985;SDS011;15453;53.692;10.168;2023-06-22T08:27:02;5.37;;;2.87;;
27985;SDS011;15453;53.692;10.168;2023-06-22T08:29:28;3.10;;;2.38;;
27985;SDS011;15453;53.692;10.168;2023-06-22T08:31:53;4.97;;;3.00;;
27985;SDS011;15453;53.692;10.168;2023-06-22T08:34:19;5.20;;;2.78;;
27985;SDS011;15453;53.692;10.168;2023-06-22T08:36:46;4.32;;;2.70;;
27985;SDS011;15453;53.692;10.168;2023-06-22T08:39:16;4.60;;;2.97;;
27985;SDS011;15453;53.692;10.168;2023-06-22T08:41:42;5.97;;;2.92;;
27985;SDS011;15453;53.692;10.168;2023-06-22T08:44:07;3.80;;;2.80;;
27985;SDS011;15453;53.692;10.168;2023-06-22T08:46:32;3.60;;;2.50;;
27985;SDS011;15453;53.692;10.168;2023-06-22T08:48:58;3.63;;;2.60;;
27985;SDS011;15453;53.692;10.168;2023-06-22T08:51:24;5.75;;;2.97;;
27985;SDS011;15453;53.692;10.168;2023-06-22T08:53:50;3.67;;;2.60;;
27985;SDS011;15453;53.692;10.168;2023-06-22T08:56:15;4.88;;;2.90;;
27985;SDS011;15453;53.692;10.168;2023-06-22T08:58:41;7.00;;;2.70;;
27985;SDS011;15453;53.692;10.168;2023-06-22T09:01:06;3.47;;;2.25;;
27985;SDS011;15453;53.692;10.168;2023-06-22T09:03:32;6.13;;;3.20;;
27985;SDS011;15453;53.692;10.168;2023-06-22T09:06:00;3.35;;;2.70;;
27985;SDS011;15453;53.692;10.168;2023-06-22T09:11:47;3.92;;;2.72;;
27985;SDS011;15453;53.692;10.168;2023-06-22T09:14:12;4.63;;;2.90;;
27985;SDS011;15453;53.692;10.168;2023-06-22T09:16:37;3.70;;;2.80;;
27985;SDS011;15453;53.692;10.168;2023-06-22T09:19:02;4.43;;;3.10;;
27985;SDS011;15453;53.692;10.168;2023-06-22T09:21:28;4.55;;;2.60;;
27985;SDS011;15453;53.692;10.168;2023-06-22T09:23:54;4.18;;;2.35;;
27985;SDS011;15453;53.692;10.168;2023-06-22T09:26:19;3.42;;;2.30;;
27985;SDS011;15453;53.692;10.168;2023-06-22T09:28:45;3.22;;;2.10;;
27985;SDS011;15453;53.692;10.168;2023-06-22T09:31:11;4.03;;;2.40;;
27985;SDS011;15453;53.692;10.168;2023-06-22T09:33:36;4.38;;;2.70;;
27985;SDS011;15453;53.692;10.168;2023-06-22T09:36:05;5.43;;;3.15;;
27985;SDS011;15453;53.692;10.168;2023-06-22T09:38:34;3.63;;;2.50;;
27985;SDS011;15453;53.692;10.168;2023-06-22T09:41:03;3.03;;;2.33;;
27985;SDS011;15453;53.692;10.168;2023-06-22T09:43:29;4.07;;;2.55;;
27985;SDS011;15453;53.692;10.168;2023-06-22T09:46:01;2.90;;;2.35;;
27985;SDS011;15453;53.692;10.168;2023-06-22T09:48:27;5.32;;;3.28;;
27985;SDS011;15453;53.692;10.168;2023-06-22T09:50:54;2.92;;;2.25;;
27985;SDS011;15453;53.692;10.168;2023-06-22T09:53:20;6.53;;;2.50;;
27985;SDS011;15453;53.692;10.168;2023-06-22T09:55:45;3.97;;;2.50;;
27985;SDS011;15453;53.692;10.168;2023-06-22T09:58:10;4.77;;;2.47;;
27985;SDS011;15453;53.692;10.168;2023-06-22T10:00:36;4.88;;;2.92;;
27985;SDS011;15453;53.692;10.168;2023-06-22T10:03:02;4.35;;;2.53;;
27985;SDS011;15453;53.692;10.168;2023-06-22T10:05:27;9.50;;;2.55;;
27985;SDS011;15453;53.692;10.168;2023-06-22T10:07:53;4.15;;;2.90;;
27985;SDS011;15453;53.692;10.168;2023-06-22T10:10:18;3.58;;;2.70;;
27985;SDS011;15453;53.692;10.168;2023-06-22T10:12:45;3.33;;;2.70;;
27985;SDS011;15453;53.692;10.168;2023-06-22T10:15:12;4.13;;;2.55;;
27985;SDS011;15453;53.692;10.168;2023-06-22T10:17:37;3.88;;;2.60;;
27985;SDS011;15453;53.692;10.168;2023-06-22T10:20:03;4.90;;;2.92;;
27985;SDS011;15453;53.692;10.168;2023-06-22T10:22:36;4.97;;;2.67;;
27985;SDS011;15453;53.692;10.168;2023-06-22T10:25:06;3.17;;;2.47;;
27985;SDS011;15453;53.692;10.168;2023-06-22T10:27:32;3.72;;;2.70;;
27985;SDS011;15453;53.692;10.168;2023-06-22T10:29:57;4.22;;;2.45;;
27985;SDS011;15453;53.692;10.168;2023-06-22T10:32:23;4.03;;;2.80;;
27985;SDS011;15453;53.692;10.168;2023-06-22T10:34:48;3.63;;;2.50;;
27985;SDS011;15453;53.692;10.168;2023-06-22T10:37:13;3.47;;;2.57;;
27985;SDS011;15453;53.692;10.168;2023-06-22T10:39:38;2.53;;;2.03;;
27985;SDS011;15453;53.692;10.168;2023-06-22T10:42:04;2.92;;;2.05;;
27985;SDS011;15453;53.692;10.168;2023-06-22T10:44:29;2.80;;;2.33;;
27985;SDS011;15453;53.692;10.168;2023-06-22T10:46:54;2.93;;;2.20;;
27985;SDS011;15453;53.692;10.168;2023-06-22T10:49:20;3.00;;;2.33;;
27985;SDS011;15453;53.692;10.168;2023-06-22T10:51:48;3.37;;;2.73;;
27985;SDS011;15453;53.692;10.168;2023-06-22T10:54:14;3.10;;;2.40;;
27985;SDS011;15453;53.692;10.168;2023-06-22T10:56:42;3.90;;;2.47;;
27985;SDS011;15453;53.692;10.168;2023-06-22T10:59:07;3.53;;;2.70;;
27985;SDS011;15453;53.692;10.168;2023-06-22T11:01:32;3.73;;;2.53;;
27985;SDS011;15453;53.692;10.168;2023-06-22T11:03:58;4.07;;;2.30;;
27985;SDS011;15453;53.692;10.168;2023-06-22T11:06:23;2.80;;;2.30;;
27985;SDS011;15453;53.692;10.168;2023-06-22T11:08:49;3.22;;;2.42;;
27985;SDS011;15453;53.692;10.168;2023-06-22T11:11:15;4.07;;;3.13;;
27985;SDS011;15453;53.692;10.168;2023-06-22T11:13:42;5.30;;;2.88;;
27985;SDS011;15453;53.692;10.168;2023-06-22T11:16:07;4.75;;;2.70;;
27985;SDS011;15453;53.692;10.168;2023-06-22T11:18:32;4.30;;;3.20;;
27985;SDS011;15453;53.692;10.168;2023-06-22T11:20:58;3.50;;;2.40;;
27985;SDS011;15453;53.692;10.168;2023-06-22T11:23:24;5.78;;;2.90;;
27985;SDS011;15453;53.692;10.168;2023-06-22T11:25:51;3.35;;;2.70;;
27985;SDS011;15453;53.692;10.168;2023-06-22T11:28:16;3.47;;;2.85;;
27985;SDS011;15453;53.692;10.168;2023-06-22T11:30:41;2.93;;;2.43;;
27985;SDS011;15453;53.692;10.168;2023-06-22T11:33:07;4.22;;;2.40;;
27985;SDS011;15453;53.692;10.168;2023-06-22T11:35:36;3.25;;;2.60;;
27985;SDS011;15453;53.692;10.168;2023-06-22T11:38:01;2.85;;;2.55;;
27985;SDS011;15453;53.692;10.168;2023-06-22T11:40:28;5.22;;;3.42;;
27985;SDS011;15453;53.692;10.168;2023-06-22T11:42:54;4.22;;;3.10;;
27985;SDS011;15453;53.692;10.168;2023-06-22T11:45:19;4.03;;;3.08;;
27985;SDS011;15453;53.692;10.168;2023-06-22T11:47:48;3.22;;;2.92;;
27985;SDS011;15453;53.692;10.168;2023-06-22T11:50:13;3.25;;;2.67;;
27985;SDS011;15453;53.692;10.168;2023-06-22T11:52:39;4.05;;;2.58;;
27985;SDS011;15453;53.692;10.168;2023-06-22T11:55:05;3.78;;;3.03;;
27985;SDS011;15453;53.692;10.168;2023-06-22T11:57:35;3.95;;;2.70;;
27985;SDS011;15453;53.692;10.168;2023-06-22T12:00:02;4.10;;;2.92;;
27985;SDS011;15453;53.692;10.168;2023-06-22T12:02:31;3.88;;;2.88;;
27985;SDS011;15453;53.692;10.168;2023-06-22T12:04:56;3.92;;;2.70;;
27985;SDS011;15453;53.692;10.168;2023-06-22T12:07:23;4.63;;;3.00;;
27985;SDS011;15453;53.692;10.168;2023-06-22T12:09:48;4.60;;;2.80;;
27985;SDS011;15453;53.692;10.168;2023-06-22T12:12:13;3.33;;;2.50;;
27985;SDS011;15453;53.692;10.168;2023-06-22T12:14:39;3.13;;;2.67;;
27985;SDS011;15453;53.692;10.168;2023-06-22T12:17:04;3.80;;;2.63;;
27985;SDS011;15453;53.692;10.168;2023-06-22T12:19:29;3.20;;;2.70;;
27985;SDS011;15453;53.692;10.168;2023-06-22T12:21:54;3.00;;;2.47;;
27985;SDS011;15453;53.692;10.168;2023-06-22T12:24:19;4.00;;;2.63;;
27985;SDS011;15453;53.692;10.168;2023-06-22T12:26:45;5.97;;;2.83;;
27985;SDS011;15453;53.692;10.168;2023-06-22T12:29:10;7.93;;;3.00;;
27985;SDS011;15453;53.692;10.168;2023-06-22T12:31:36;4.03;;;3.17;;
27985;SDS011;15453;53.692;10.168;2023-06-22T12:34:03;5.30;;;2.90;;
27985;SDS011;15453;53.692;10.168;2023-06-22T12:36:29;4.32;;;3.33;;
27985;SDS011;15453;53.692;10.168;2023-06-22T12:38:54;4.72;;;3.67;;
27985;SDS011;15453;53.692;10.168;2023-06-22T12:41:19;3.92;;;3.20;;
27985;SDS011;15453;53.692;10.168;2023-06-22T12:43:44;4.45;;;3.30;;
27985;SDS011;15453;53.692;10.168;2023-06-22T12:46:11;5.32;;;3.78;;
27985;SDS011;15453;53.692;10.168;2023-06-22T12:48:36;7.17;;;3.37;;
27985;SDS011;15453;53.692;10.168;2023-06-22T12:51:06;4.30;;;3.58;;
27985;SDS011;15453;53.692;10.168;2023-06-22T12:53:32;5.53;;;3.60;;
27985;SDS011;15453;53.692;10.168;2023-06-22T12:55:57;3.80;;;3.47;;
27985;SDS011;15453;53.692;10.168;2023-06-22T12:58:23;6.07;;;3.88;;
27985;SDS011;15453;53.692;10.168;2023-06-22T13:00:48;4.93;;;3.90;;
27985;SDS011;15453;53.692;10.168;2023-06-22T13:03:14;4.20;;;3.28;;
27985;SDS011;15453;53.692;10.168;2023-06-22T13:05:39;6.50;;;3.58;;
27985;SDS011;15453;53.692;10.168;2023-06-22T13:08:04;4.72;;;3.08;;
27985;SDS011;15453;53.692;10.168;2023-06-22T13:10:29;3.40;;;3.10;;
27985;SDS011;15453;53.692;10.168;2023-06-22T13:12:55;3.63;;;3.23;;
27985;SDS011;15453;53.692;10.168;2023-06-22T13:15:25;4.00;;;3.20;;
27985;SDS011;15453;53.692;10.168;2023-06-22T13:17:50;4.80;;;3.47;;
27985;SDS011;15453;53.692;10.168;2023-06-22T13:20:16;3.50;;;3.15;;
27985;SDS011;15453;53.692;10.168;2023-06-22T13:22:41;5.43;;;3.83;;
27985;SDS011;15453;53.692;10.168;2023-06-22T13:25:08;4.78;;;3.85;;
27985;SDS011;15453;53.692;10.168;2023-06-22T13:27:37;5.57;;;3.67;;
27985;SDS011;15453;53.692;10.168;2023-06-22T13:30:05;4.67;;;3.37;;
27985;SDS011;15453;53.692;10.168;2023-06-22T13:32:31;6.80;;;3.47;;
27985;SDS011;15453;53.692;10.168;2023-06-22T13:34:57;4.68;;;3.53;;
27985;SDS011;15453;53.692;10.168;2023-06-22T13:37:22;5.00;;;3.70;;
27985;SDS011;15453;53.692;10.168;2023-06-22T13:39:47;7.25;;;3.90;;
27985;SDS011;15453;53.692;10.168;2023-06-22T13:42:13;3.40;;;3.10;;
27985;SDS011;15453;53.692;10.168;2023-06-22T13:44:38;3.67;;;3.30;;
27985;SDS011;15453;53.692;10.168;2023-06-22T13:47:03;5.73;;;3.47;;
27985;SDS011;15453;53.692;10.168;2023-06-22T13:49:29;6.20;;;3.38;;
27985;SDS011;15453;53.692;10.168;2023-06-22T13:51:55;3.90;;;3.30;;
27985;SDS011;15453;53.692;10.168;2023-06-22T13:54:20;5.68;;;3.70;;
27985;SDS011;15453;53.692;10.168;2023-06-22T13:56:46;3.33;;;3.03;;
27985;SDS011;15453;53.692;10.168;2023-06-22T13:59:11;4.60;;;3.40;;
27985;SDS011;15453;53.692;10.168;2023-06-22T14:01:38;4.13;;;3.20;;
27985;SDS011;15453;53.692;10.168;2023-06-22T14:04:08;4.75;;;3.30;;
27985;SDS011;15453;53.692;10.168;2023-06-22T14:06:33;3.60;;;3.25;;
27985;SDS011;15453;53.692;10.168;2023-06-22T14:09:01;3.45;;;2.97;;
27985;SDS011;15453;53.692;10.168;2023-06-22T14:11:26;4.68;;;3.10;;
27985;SDS011;15453;53.692;10.168;2023-06-22T14:13:55;3.40;;;3.03;;
27985;SDS011;15453;53.692;10.168;2023-06-22T14:16:20;4.80;;;3.80;;
27985;SDS011;15453;53.692;10.168;2023-06-22T14:18:47;3.55;;;3.25;;
27985;SDS011;15453;53.692;10.168;2023-06-22T14:21:13;5.57;;;3.05;;
27985;SDS011;15453;53.692;10.168;2023-06-22T14:23:44;4.18;;;2.88;;
27985;SDS011;15453;53.692;10.168;2023-06-22T14:26:19;3.72;;;3.00;;
27985;SDS011;15453;53.692;10.168;2023-06-22T14:28:47;4.72;;;3.10;;
27985;SDS011;15453;53.692;10.168;2023-06-22T14:31:17;3.67;;;3.17;;
27985;SDS011;15453;53.692;10.168;2023-06-22T14:33:47;3.90;;;3.45;;
27985;SDS011;15453;53.692;10.168;2023-06-22T14:36:16;3.38;;;3.00;;
27985;SDS011;15453;53.692;10.168;2023-06-22T14:38:48;4.38;;;2.78;;